EHRD/RTM METAR and TAF weather

Enter ICAO airport designator
Station Type Date Time Source
EHRD METAR 2021/09/23 18:25 UTC NOAA

EHRD 231825Z AUTO 26008KT 220V290 9999 FEW022 OVC036 18/15 Q1016 NOSIG


Station Type Date Time Source
EHRD Decoded METAR 2021/09/23 18:25 UTC NOAA

Rotterdam Airport Zestienhoven, Netherlands (EHRD) 51-57N 004-27E -4M
Sep 23, 2021 - 02:25 PM EDT / 2021.09.23 1825 UTC
Wind: from the W (260 degrees) at 9 MPH (8 KT) (direction variable):0
Visibility: greater than 7 mile(s):0
Sky conditions: overcast
Temperature: 64 F (18 C)
Dew Point: 59 F (15 C)
Relative Humidity: 82%
Pressure (altimeter): 30.00 in. Hg (1016 hPa)
ob: EHRD 231825Z AUTO 26008KT 220V290 9999 FEW022 OVC036 18/15 Q1016 NOSIG
cycle: 18

Station Type Date Time Source
EHRD TAF 2021/09/23 18:27 UTC NOAA

TAF EHRD 231709Z 2318/2424 30010KT 9999 BKN030
BECMG 2322/2401 22005KT PROB30 2403/2408 4000 BR BKN007
BECMG 2407/2410 25015KT
BECMG 2418/2421 22008KT

Example: see airport list